Startpagina
METAR-TAF:

METAR-TAF

Vliegvelden :

Doesjanbe, Tadzjikistan

Luchthaven Doesjanbe

breedte: 38-33N, lengte: 068-47E, hoogte: 803 m

Actueel weer

Dit bericht is 27 minuten geleden gemaakt, om 13:00 UTC
Wind 10 kt uit het westen
Temperatuur 27°C
Vochtigheid 24%
Druk 1014 hPa
Zicht 10 km of meer

METAR: UTDD 191300Z 28005MPS 9999 NSC 27/05 Q1014 R09/D NOSIG RMK QFE692/0923

Tijdstip: 18:27 (13:27 UTC)

Verwachting

Dit bericht is 1 uur en het 27 minuten geleden gemaakt, om 12:00 UTC
Verwachting geldig van 19 om 13 UTC tot 20 om 01 UTC
Wind 4 kt uit variabele richting
Zicht: 6000 m
Weinig wolken op 6600 ft
Verspreide wolken op 13000 ft
Tijdelijke
van 19 om 13 UTC tot 19 om 19 UTC
Wind 14 kt uit het westen

TAF: UTDD 191200Z 1913/2001 VRB02MPS 6000 FEW066 SCT130 TEMPO 1913/1919 27007MPS

Waarnemingen en weersverwachtingen van meer dan 4000 vliegvelden (METAR en TAF).

De beschikbare stations zijn de gele en rode punten op de kaart.

Ga met uw muis naar het station om de naam te zien.

Klik dan om waarnemingen en weersverwachtingen te zien.

kaart wijzigen: klik op de groene knoppen met een zwart kruis om in te zoomen, op de groene knop met een streepje om uit te zoomen of op de groene pijlen voor aangrenzende kaarten.


METAR-TAF: